createdAt,value
2023-04-11T00:02:27.890Z,8.20
2023-04-11T00:04:55.898Z,8.85
2023-04-11T00:07:23.703Z,8.97
2023-04-11T00:09:51.431Z,8.48
2023-04-11T00:12:19.280Z,7.82
2023-04-11T00:14:49.075Z,8.10
2023-04-11T00:17:17.713Z,8.50
2023-04-11T00:19:46.446Z,9.25
2023-04-11T00:22:16.181Z,9.47
2023-04-11T00:24:44.125Z,10.00
2023-04-11T00:27:11.895Z,8.20
2023-04-11T00:29:39.614Z,8.40
2023-04-11T00:32:08.849Z,7.70
2023-04-11T00:34:36.994Z,8.13
2023-04-11T00:37:04.827Z,7.90
2023-04-11T00:39:35.088Z,8.23
2023-04-11T00:42:07.166Z,7.77
2023-04-11T00:44:35.374Z,8.60
2023-04-11T00:47:06.127Z,7.57
2023-04-11T00:49:35.743Z,8.90
2023-04-11T00:52:04.446Z,7.87
2023-04-11T00:54:32.415Z,9.07
2023-04-11T00:57:01.049Z,7.47
2023-04-11T00:59:29.825Z,7.47
2023-04-11T01:01:58.301Z,8.98
2023-04-11T01:04:27.148Z,8.30
2023-04-11T01:07:04.068Z,8.15
2023-04-11T01:09:34.762Z,7.38
2023-04-11T01:12:04.297Z,8.23
2023-04-11T01:14:32.237Z,7.67
2023-04-11T01:17:02.110Z,7.90
2023-04-11T01:19:31.199Z,7.77
2023-04-11T01:22:01.864Z,8.07
2023-04-11T01:24:31.710Z,8.77
2023-04-11T01:26:59.540Z,9.63
2023-04-11T01:29:27.319Z,9.68
2023-04-11T01:31:55.470Z,9.07
2023-04-11T01:34:28.347Z,7.20
2023-04-11T01:36:56.707Z,9.00
2023-04-11T01:39:24.737Z,8.27
2023-04-11T01:41:54.726Z,8.60
2023-04-11T01:44:23.805Z,9.47
2023-04-11T01:46:52.218Z,7.83
2023-04-11T01:49:21.595Z,7.72
2023-04-11T01:51:49.349Z,8.90
2023-04-11T01:54:17.102Z,7.97
2023-04-11T01:56:44.836Z,8.57
2023-04-11T01:59:14.092Z,10.33
2023-04-11T02:01:44.151Z,8.43
2023-04-11T02:04:12.262Z,9.00
2023-04-11T02:06:40.196Z,8.93
2023-04-11T02:09:08.014Z,8.40
2023-04-11T02:11:36.070Z,8.13
2023-04-11T02:14:03.887Z,8.40
2023-04-11T02:16:33.688Z,8.47
2023-04-11T02:19:03.574Z,9.05
2023-04-11T02:21:31.694Z,8.35
2023-04-11T02:24:00.760Z,8.77
2023-04-11T02:26:28.742Z,8.17
2023-04-11T02:28:56.721Z,9.50
2023-04-11T02:31:24.638Z,8.53
2023-04-11T02:33:53.822Z,10.33
2023-04-11T02:36:21.994Z,7.35
2023-04-11T02:38:49.744Z,10.13
2023-04-11T02:41:17.491Z,8.23
2023-04-11T02:43:45.514Z,9.10
2023-04-11T02:46:13.563Z,10.27
2023-04-11T02:48:41.467Z,8.57
2023-04-11T02:51:10.597Z,9.27
2023-04-11T02:53:38.376Z,9.67
2023-04-11T02:56:07.804Z,9.50
2023-04-11T02:58:38.989Z,9.93
2023-04-11T03:01:08.002Z,9.43
2023-04-11T03:03:35.825Z,9.17
2023-04-11T03:06:03.672Z,10.37
2023-04-11T03:08:32.733Z,9.90
2023-04-11T03:11:00.649Z,10.70
2023-04-11T03:13:28.640Z,9.83
2023-04-11T03:15:56.404Z,8.37
2023-04-11T03:18:24.672Z,9.27
2023-04-11T03:20:52.801Z,9.40
2023-04-11T03:23:20.516Z,9.27
2023-04-11T03:25:50.967Z,9.53
2023-04-11T03:28:18.807Z,9.40
2023-04-11T03:30:46.595Z,9.90
2023-04-11T03:33:14.327Z,11.17
2023-04-11T03:35:42.083Z,10.10
2023-04-11T03:38:09.877Z,9.43
2023-04-11T03:40:37.679Z,9.30
2023-04-11T03:43:07.389Z,8.90
2023-04-11T03:45:35.181Z,10.80
2023-04-11T03:48:02.952Z,9.10
2023-04-11T03:50:30.992Z,9.80
2023-04-11T03:52:58.723Z,9.80
2023-04-11T03:55:27.000Z,9.53
2023-04-11T03:57:54.743Z,9.20
2023-04-11T04:00:23.846Z,10.40
2023-04-11T04:02:51.750Z,11.17
2023-04-11T04:05:19.735Z,8.80
2023-04-11T04:07:47.459Z,8.60
2023-04-11T04:10:15.412Z,8.90
2023-04-11T04:12:44.522Z,8.33
2023-04-11T04:15:14.998Z,7.67
2023-04-11T04:17:44.256Z,7.47
2023-04-11T04:20:12.690Z,7.30
2023-04-11T04:22:40.514Z,8.97
2023-04-11T04:25:12.558Z,9.77
2023-04-11T04:27:44.375Z,8.43
2023-04-11T04:30:15.694Z,10.33
2023-04-11T04:32:45.720Z,10.00
2023-04-11T04:35:16.646Z,10.50
2023-04-11T04:37:46.262Z,13.47
2023-04-11T04:40:15.894Z,11.47
2023-04-11T04:42:44.062Z,10.17
2023-04-11T04:45:12.061Z,10.37
2023-04-11T04:47:39.849Z,10.63
2023-04-11T04:50:10.055Z,11.27
2023-04-11T04:52:37.793Z,10.00
2023-04-11T04:55:07.508Z,13.97
2023-04-11T04:57:35.342Z,10.60
2023-04-11T05:00:06.848Z,10.40
2023-04-11T05:02:34.702Z,11.40
2023-04-11T05:05:04.371Z,11.80
2023-04-11T05:07:33.541Z,11.07
2023-04-11T05:10:01.385Z,11.50
2023-04-11T05:12:29.297Z,11.63
2023-04-11T05:14:57.076Z,11.20
2023-04-11T05:17:25.632Z,11.43
2023-04-11T05:19:53.528Z,11.70
2023-04-11T05:22:21.280Z,12.30
2023-04-11T05:24:50.496Z,10.70
2023-04-11T05:27:18.760Z,10.83
2023-04-11T05:29:47.410Z,10.50
2023-04-11T05:32:15.337Z,11.43
2023-04-11T05:34:52.816Z,11.90
2023-04-11T05:37:21.063Z,11.67
2023-04-11T05:39:50.261Z,12.67
2023-04-11T05:42:18.586Z,12.07
2023-04-11T05:44:46.339Z,10.87
2023-04-11T05:47:14.114Z,11.60
2023-04-11T05:49:41.907Z,13.93
2023-04-11T05:52:09.629Z,13.10
2023-04-11T05:54:38.183Z,12.60
2023-04-11T05:57:07.648Z,10.57
2023-04-11T05:59:36.120Z,12.47
2023-04-11T06:02:04.043Z,12.83
2023-04-11T06:04:32.234Z,12.57
2023-04-11T06:07:00.451Z,13.30
2023-04-11T06:09:28.244Z,13.53
2023-04-11T06:11:56.834Z,15.37
2023-04-11T06:14:26.052Z,14.43
2023-04-11T06:16:53.824Z,14.70
2023-04-11T06:19:21.564Z,16.37
2023-04-11T06:21:49.348Z,13.10
2023-04-11T06:24:18.272Z,15.80
2023-04-11T06:26:46.322Z,14.57
2023-04-11T06:29:14.085Z,11.93
2023-04-11T06:31:43.493Z,12.60
2023-04-11T06:34:12.238Z,13.90
2023-04-11T06:36:42.729Z,11.47
2023-04-11T06:39:10.951Z,12.23
2023-04-11T06:41:38.737Z,12.30
2023-04-11T06:44:06.741Z,14.10
2023-04-11T06:46:34.578Z,15.00
2023-04-11T06:49:04.068Z,14.87
2023-04-11T06:51:32.005Z,13.87
2023-04-11T06:53:59.906Z,12.47
2023-04-11T06:56:27.652Z,15.30
2023-04-11T06:58:55.453Z,14.90
2023-04-11T07:01:25.445Z,14.33
2023-04-11T07:03:53.876Z,12.77
2023-04-11T07:06:23.102Z,13.50
2023-04-11T07:08:52.777Z,19.77
2023-04-11T07:11:20.539Z,13.67
2023-04-11T07:13:48.721Z,13.70
2023-04-11T07:16:16.612Z,15.40
2023-04-11T07:18:44.762Z,13.03
2023-04-11T07:21:12.996Z,15.07
2023-04-11T07:23:42.308Z,14.83
2023-04-11T07:26:11.340Z,15.10
2023-04-11T07:28:40.278Z,13.90
2023-04-11T07:31:09.695Z,13.03
2023-04-11T07:33:38.551Z,14.40
2023-04-11T07:36:07.395Z,15.77
2023-04-11T07:38:37.457Z,15.63
2023-04-11T07:41:07.284Z,15.37
2023-04-11T07:43:34.981Z,17.23
2023-04-11T07:46:02.877Z,14.70
2023-04-11T07:48:31.857Z,14.73
2023-04-11T07:50:59.639Z,15.37
2023-04-11T07:53:27.747Z,13.73
2023-04-11T07:55:55.524Z,15.57
2023-04-11T07:58:24.582Z,15.83
2023-04-11T08:00:53.583Z,11.93
2023-04-11T08:03:23.564Z,13.77
2023-04-11T08:05:52.327Z,13.47
2023-04-11T08:08:20.090Z,12.63
2023-04-11T08:10:49.502Z,15.20
2023-04-11T08:13:18.609Z,13.57
2023-04-11T08:15:47.762Z,15.07
2023-04-11T08:18:16.498Z,13.23
2023-04-11T08:20:47.027Z,16.97
2023-04-11T08:23:15.220Z,12.63
2023-04-11T08:25:43.071Z,14.47
2023-04-11T08:28:11.953Z,13.27
2023-04-11T08:30:39.751Z,15.23
2023-04-11T08:33:10.110Z,13.77
2023-04-11T08:35:38.107Z,14.00
2023-04-11T08:38:06.190Z,14.27
2023-04-11T08:40:34.640Z,14.57
2023-04-11T08:43:02.953Z,17.53
2023-04-11T08:45:30.912Z,15.73
2023-04-11T08:47:58.665Z,12.37
2023-04-11T08:50:27.843Z,12.07
2023-04-11T08:52:55.999Z,12.03
2023-04-11T08:55:23.949Z,12.90
2023-04-11T08:57:53.648Z,11.13
2023-04-11T09:00:25.340Z,12.20
2023-04-11T09:02:58.409Z,8.83
2023-04-11T09:05:29.049Z,10.67
2023-04-11T09:07:57.348Z,6.77
2023-04-11T09:10:26.272Z,6.43
2023-04-11T09:12:54.448Z,7.63
2023-04-11T09:15:24.852Z,9.40
2023-04-11T09:17:53.206Z,7.07
2023-04-11T09:20:22.259Z,6.73
2023-04-11T09:22:51.714Z,7.43
2023-04-11T09:25:21.419Z,6.13
2023-04-11T09:27:49.577Z,7.47
2023-04-11T09:30:24.084Z,6.17
2023-04-11T09:32:54.130Z,4.80
2023-04-11T09:35:24.808Z,7.03
2023-04-11T09:37:56.086Z,3.50
2023-04-11T09:40:25.808Z,5.37
2023-04-11T09:42:58.764Z,4.30
2023-04-11T09:45:27.578Z,4.77
2023-04-11T09:47:56.974Z,4.23
2023-04-11T09:50:26.198Z,2.73
2023-04-11T09:52:58.504Z,6.07
2023-04-11T09:55:27.422Z,4.35
2023-04-11T09:57:56.127Z,3.70
2023-04-11T10:00:29.281Z,4.13
2023-04-11T10:02:58.091Z,3.88
2023-04-11T10:05:27.553Z,2.92
2023-04-11T10:08:03.873Z,4.50
2023-04-11T10:10:31.785Z,5.13
2023-04-11T10:12:59.948Z,4.25
2023-04-11T10:15:27.992Z,3.15
2023-04-11T10:18:09.320Z,4.65
2023-04-11T10:20:49.666Z,2.92
2023-04-11T10:23:18.961Z,5.80
2023-04-11T10:25:51.925Z,4.20
2023-04-11T10:28:32.360Z,4.90
2023-04-11T10:31:02.082Z,3.63
2023-04-11T10:33:29.901Z,8.30
2023-04-11T10:35:58.918Z,3.67
2023-04-11T10:41:28.509Z,7.88
2023-04-11T10:44:18.432Z,5.13
2023-04-11T10:46:48.561Z,5.22
2023-04-11T10:49:35.334Z,6.80
2023-04-11T10:52:23.051Z,4.60
2023-04-11T10:54:52.493Z,4.83
2023-04-11T10:57:22.778Z,5.37
2023-04-11T11:00:15.853Z,5.33
2023-04-11T11:02:44.034Z,3.53
2023-04-11T11:05:23.575Z,7.13
2023-04-11T11:07:53.602Z,9.20
2023-04-11T11:10:42.290Z,5.03
2023-04-11T11:13:11.847Z,5.90
2023-04-11T11:15:39.935Z,7.67
2023-04-11T11:18:09.801Z,5.43
2023-04-11T11:20:38.549Z,5.03
2023-04-11T11:23:08.944Z,5.35
2023-04-11T11:25:37.030Z,2.92
2023-04-11T11:28:06.818Z,2.53
2023-04-11T11:30:37.191Z,6.38
2023-04-11T11:33:18.668Z,2.53
2023-04-11T11:35:52.854Z,2.70
2023-04-11T11:38:21.743Z,3.22
2023-04-11T11:40:50.284Z,2.15
2023-04-11T11:43:18.117Z,2.08
2023-04-11T11:45:47.765Z,2.20
2023-04-11T11:48:23.088Z,3.70
2023-04-11T11:50:57.234Z,2.95
2023-04-11T11:53:26.698Z,3.88
2023-04-11T11:55:54.929Z,1.83
2023-04-11T11:58:23.022Z,2.58
2023-04-11T12:00:53.336Z,4.82
2023-04-11T12:03:24.239Z,3.63
2023-04-11T12:05:53.800Z,5.35
2023-04-11T12:08:23.042Z,4.95
2023-04-11T12:10:51.851Z,1.73
2023-04-11T12:13:22.332Z,5.35
2023-04-11T12:15:53.524Z,4.20
2023-04-11T12:18:22.638Z,4.40
2023-04-11T12:20:50.892Z,4.55
2023-04-11T12:23:18.863Z,5.60
2023-04-11T12:25:47.267Z,3.33
2023-04-11T12:28:15.528Z,2.55
2023-04-11T12:30:43.355Z,6.10
2023-04-11T12:33:12.546Z,3.28
2023-04-11T12:35:40.458Z,4.90
2023-04-11T12:38:09.183Z,4.40
2023-04-11T12:40:37.460Z,2.22
2023-04-11T12:43:05.364Z,3.15
2023-04-11T12:45:33.563Z,3.33
2023-04-11T12:48:01.486Z,3.67
2023-04-11T12:50:30.611Z,4.30
2023-04-11T12:52:58.463Z,3.65
2023-04-11T12:55:26.298Z,3.47
2023-04-11T12:57:54.104Z,2.70
2023-04-11T13:00:22.336Z,3.38
2023-04-11T13:02:50.246Z,5.47
2023-04-11T13:05:18.641Z,3.25
2023-04-11T13:07:48.125Z,2.42
2023-04-11T13:10:16.826Z,21.52
2023-04-11T13:12:45.797Z,1.70
2023-04-11T13:15:14.909Z,3.80
2023-04-11T13:17:42.946Z,2.78
2023-04-11T13:20:12.643Z,4.05
2023-04-11T13:22:42.152Z,2.00
2023-04-11T13:25:11.997Z,3.97
2023-04-11T13:27:40.207Z,2.07
2023-04-11T13:30:09.926Z,2.73
2023-04-11T13:32:37.879Z,2.07
2023-04-11T13:35:06.226Z,1.00
2023-04-11T13:37:34.313Z,2.00
2023-04-11T13:40:02.053Z,2.07
2023-04-11T13:42:31.410Z,2.50
2023-04-11T13:44:59.148Z,2.43
2023-04-11T13:47:26.992Z,3.17
2023-04-11T13:49:54.783Z,5.03
2023-04-11T13:52:23.787Z,3.37
2023-04-11T13:54:51.636Z,5.57
2023-04-11T13:57:19.466Z,2.57
2023-04-11T13:59:48.549Z,1.73
2023-04-11T14:02:16.444Z,6.37
2023-04-11T14:04:44.239Z,3.20
2023-04-11T14:07:12.549Z,2.80
2023-04-11T14:09:40.490Z,13.37
2023-04-11T14:12:08.304Z,3.77
2023-04-11T14:14:36.157Z,3.27
2023-04-11T14:17:05.320Z,7.03
2023-04-11T14:19:33.113Z,10.30
2023-04-11T14:22:00.945Z,3.67
2023-04-11T14:24:29.293Z,2.63
2023-04-11T14:26:57.257Z,4.60
2023-04-11T14:29:25.322Z,3.20
2023-04-11T14:31:53.281Z,4.60
2023-04-11T14:34:22.540Z,1.73
2023-04-11T14:36:50.371Z,2.07
2023-04-11T14:39:18.300Z,2.10
2023-04-11T14:41:46.228Z,2.73
2023-04-11T14:44:14.087Z,3.03
2023-04-11T14:46:42.054Z,2.40
2023-04-11T14:49:10.074Z,1.30
2023-04-11T14:51:39.247Z,2.20
2023-04-11T14:54:07.316Z,1.50
2023-04-11T14:56:35.046Z,2.30
2023-04-11T14:59:02.839Z,1.13
2023-04-11T15:01:30.740Z,1.97
2023-04-11T15:03:58.787Z,1.37
2023-04-11T15:06:27.434Z,1.67
2023-04-11T15:08:57.056Z,2.60
2023-04-11T15:11:24.791Z,2.30
2023-04-11T15:13:53.550Z,2.87
2023-04-11T15:16:22.467Z,2.07
2023-04-11T15:18:50.821Z,2.13
2023-04-11T15:21:18.721Z,1.60
2023-04-11T15:23:46.512Z,2.40
2023-04-11T15:26:15.562Z,2.23
2023-04-11T15:28:44.386Z,1.53
2023-04-11T15:31:14.719Z,1.60
2023-04-11T15:33:43.174Z,2.87
2023-04-11T15:36:11.429Z,2.63
2023-04-11T15:38:39.261Z,3.30
2023-04-11T15:41:07.528Z,1.87
2023-04-11T15:43:37.059Z,3.37
2023-04-11T15:46:06.829Z,2.30
2023-04-11T15:48:34.665Z,3.10
2023-04-11T15:51:09.398Z,2.40
2023-04-11T15:53:37.161Z,4.33
2023-04-11T15:56:06.079Z,3.63
2023-04-11T15:58:34.135Z,2.57
2023-04-11T16:01:03.248Z,2.10
2023-04-11T16:03:32.820Z,2.47
2023-04-11T16:06:01.284Z,1.90
2023-04-11T16:08:29.190Z,3.07
2023-04-11T16:10:56.919Z,2.23
2023-04-11T16:13:24.632Z,2.33
2023-04-11T16:15:52.377Z,4.43
2023-04-11T16:18:21.437Z,3.17
2023-04-11T16:20:49.150Z,4.97
2023-04-11T16:23:16.931Z,2.93
2023-04-11T16:25:45.560Z,3.47
2023-04-11T16:28:15.325Z,6.30
2023-04-11T16:30:43.056Z,4.17
2023-04-11T16:33:10.834Z,3.30
2023-04-11T16:35:39.889Z,7.90
2023-04-11T16:38:07.630Z,3.20
2023-04-11T16:40:35.479Z,2.17
2023-04-11T16:43:03.231Z,2.60
2023-04-11T16:45:31.371Z,2.87
2023-04-11T16:47:59.198Z,3.40
2023-04-11T16:50:27.012Z,5.73
2023-04-11T16:52:56.352Z,1.50
2023-04-11T16:55:24.436Z,1.87
2023-04-11T16:57:52.270Z,4.10
2023-04-11T17:00:20.798Z,1.83
2023-04-11T17:02:48.727Z,5.13
2023-04-11T17:05:18.839Z,4.63
2023-04-11T17:07:46.690Z,4.17
2023-04-11T17:10:16.059Z,2.30
2023-04-11T17:12:44.051Z,4.97
2023-04-11T17:15:12.670Z,7.47
2023-04-11T17:17:40.499Z,3.33
2023-04-11T17:20:12.236Z,6.53
2023-04-11T17:22:43.153Z,2.67
2023-04-11T17:25:11.515Z,2.87
2023-04-11T17:27:41.762Z,5.10
2023-04-11T17:30:10.158Z,2.67
2023-04-11T17:32:38.385Z,1.73
2023-04-11T17:35:07.043Z,5.07
2023-04-11T17:37:36.063Z,2.73
2023-04-11T17:40:12.976Z,2.80
2023-04-11T17:42:42.265Z,2.10
2023-04-11T17:45:17.683Z,5.23
2023-04-11T17:47:46.489Z,2.67
2023-04-11T17:50:14.956Z,2.70
2023-04-11T17:52:44.292Z,2.83
2023-04-11T17:55:13.771Z,5.03
2023-04-11T17:57:43.540Z,10.53
2023-04-11T18:00:19.029Z,4.90
2023-04-11T18:02:49.032Z,2.13
2023-04-11T18:05:23.644Z,3.43
2023-04-11T18:07:54.215Z,3.10
2023-04-11T18:10:22.842Z,3.13
2023-04-11T18:12:53.015Z,2.97
2023-04-11T18:15:22.008Z,1.53
2023-04-11T18:17:50.132Z,3.87
2023-04-11T18:20:18.798Z,3.27
2023-04-11T18:22:50.191Z,2.40
2023-04-11T18:25:18.504Z,2.37
2023-04-11T18:27:47.116Z,4.00
2023-04-11T18:30:17.569Z,2.23
2023-04-11T18:32:49.735Z,3.07
2023-04-11T18:35:18.991Z,2.47
2023-04-11T18:37:47.162Z,3.67
2023-04-11T18:40:15.977Z,3.10
2023-04-11T18:42:46.172Z,2.50
2023-04-11T18:45:15.546Z,1.90
2023-04-11T18:47:46.447Z,2.30
2023-04-11T18:50:14.586Z,2.93
2023-04-11T18:52:44.444Z,5.50
2023-04-11T18:55:13.283Z,5.27
2023-04-11T18:57:42.488Z,1.90
2023-04-11T19:00:17.516Z,2.80
2023-04-11T19:02:50.675Z,3.10
2023-04-11T19:05:19.115Z,2.03
2023-04-11T19:07:47.167Z,3.77
2023-04-11T19:10:15.003Z,1.27
2023-04-11T19:12:42.891Z,6.00
2023-04-11T19:15:11.760Z,2.00
2023-04-11T19:17:39.892Z,2.37
2023-04-11T19:20:12.463Z,3.43
2023-04-11T19:22:41.097Z,14.57
2023-04-11T19:25:11.482Z,2.13
2023-04-11T19:27:41.357Z,1.70
2023-04-11T19:30:10.493Z,2.63
2023-04-11T19:32:42.929Z,2.10
2023-04-11T19:35:12.922Z,2.20
2023-04-11T19:37:41.808Z,2.23
2023-04-11T19:40:13.449Z,2.53
2023-04-11T19:42:41.672Z,2.03
2023-04-11T19:45:11.062Z,1.23
2023-04-11T19:47:40.274Z,1.67
2023-04-11T19:50:11.687Z,2.50
2023-04-11T19:52:41.333Z,2.20
2023-04-11T19:55:10.292Z,3.40
2023-04-11T19:57:38.831Z,4.00
2023-04-11T20:00:12.377Z,3.17
2023-04-11T20:02:44.619Z,2.27
2023-04-11T20:05:12.839Z,2.20
2023-04-11T20:07:42.557Z,1.87
2023-04-11T20:10:11.170Z,4.03
2023-04-11T20:12:39.065Z,2.50
2023-04-11T20:15:08.173Z,4.00
2023-04-11T20:17:37.173Z,2.37
2023-04-11T20:20:08.733Z,6.73
2023-04-11T20:22:38.462Z,4.67
2023-04-11T20:25:11.574Z,3.03
2023-04-11T20:27:39.741Z,2.90
2023-04-11T20:30:09.872Z,2.87
2023-04-11T20:32:37.798Z,2.93
2023-04-11T20:35:06.154Z,3.00
2023-04-11T20:37:35.081Z,3.17
2023-04-11T20:40:06.497Z,2.47
2023-04-11T20:42:39.718Z,1.93
2023-04-11T20:45:10.093Z,4.80
2023-04-11T20:47:38.346Z,1.77
2023-04-11T20:50:07.375Z,4.87
2023-04-11T20:52:35.376Z,2.10
2023-04-11T20:55:03.541Z,2.87
2023-04-11T20:57:31.505Z,2.40
2023-04-11T21:00:00.971Z,2.33
2023-04-11T21:02:29.108Z,3.60
2023-04-11T21:04:57.035Z,2.30
2023-04-11T21:07:24.798Z,3.57
2023-04-11T21:09:52.677Z,4.20
2023-04-11T21:12:20.432Z,6.07
2023-04-11T21:14:48.158Z,2.57
2023-04-11T21:17:17.211Z,4.70
2023-04-11T21:19:44.915Z,4.27
2023-04-11T21:22:13.385Z,4.30
2023-04-11T21:24:41.250Z,3.30
2023-04-11T21:27:09.166Z,3.47
2023-04-11T21:29:36.889Z,4.13
2023-04-11T21:32:04.638Z,3.43
2023-04-11T21:34:33.670Z,2.07
2023-04-11T21:37:01.506Z,6.40
2023-04-11T21:39:29.228Z,4.57
2023-04-11T21:41:57.007Z,2.27
2023-04-11T21:44:24.823Z,3.97
2023-04-11T21:46:52.762Z,4.83
2023-04-11T21:49:20.940Z,6.17
2023-04-11T21:51:50.064Z,4.63
2023-04-11T21:54:17.796Z,9.37
2023-04-11T21:56:45.544Z,4.93
2023-04-11T21:59:13.357Z,3.80
2023-04-11T22:01:41.711Z,4.20
2023-04-11T22:04:10.587Z,5.37
2023-04-11T22:06:38.808Z,5.00
2023-04-11T22:09:09.915Z,6.47
2023-04-11T22:11:37.882Z,3.53
2023-04-11T22:14:05.599Z,7.77
2023-04-11T22:16:33.669Z,4.07
2023-04-11T22:19:01.910Z,5.33
2023-04-11T22:21:31.913Z,3.80
2023-04-11T22:24:02.127Z,3.97
2023-04-11T22:26:34.050Z,5.77
2023-04-11T22:29:05.156Z,5.73
2023-04-11T22:31:34.625Z,3.80
2023-04-11T22:34:02.725Z,2.97
2023-04-11T22:36:35.364Z,3.93
2023-04-11T22:39:04.984Z,3.23
2023-04-11T22:41:34.284Z,4.60
2023-04-11T22:44:03.033Z,2.97
2023-04-11T22:46:31.750Z,4.73
2023-04-11T22:48:59.449Z,4.73
2023-04-11T22:51:30.067Z,4.67
2023-04-11T22:53:58.180Z,4.13
2023-04-11T22:56:26.360Z,7.40
2023-04-11T22:58:55.430Z,8.90
2023-04-11T23:01:23.432Z,3.63
2023-04-11T23:03:51.340Z,4.33
2023-04-11T23:06:19.145Z,8.33
2023-04-11T23:08:47.480Z,5.47
2023-04-11T23:11:15.203Z,4.97
2023-04-11T23:13:43.127Z,11.23
2023-04-11T23:16:13.331Z,3.80
2023-04-11T23:18:41.161Z,8.13
2023-04-11T23:21:14.373Z,6.60
2023-04-11T23:23:42.116Z,4.40
2023-04-11T23:26:10.816Z,3.33
2023-04-11T23:28:38.771Z,12.07
2023-04-11T23:31:06.844Z,7.63
2023-04-11T23:33:35.969Z,6.70
2023-04-11T23:36:03.903Z,4.90
2023-04-11T23:38:31.920Z,4.30
2023-04-11T23:40:59.705Z,5.47
2023-04-11T23:43:27.482Z,5.63
2023-04-11T23:45:56.556Z,3.70
2023-04-11T23:48:24.432Z,3.33
2023-04-11T23:50:53.497Z,7.20
2023-04-11T23:53:21.307Z,3.97
2023-04-11T23:55:49.814Z,5.27
2023-04-11T23:58:18.039Z,8.67
